Ulvah, Kentucky
Current Conditions -  °F | °C
As of 5:55 AM on Thursday 27 Nov 2014 (Local Time) from KI35 Reporting Station
Overcast Overcast  
Wind Chill: 34°   Ceiling: 1200
Heat Index: 34°   Visibility: 7mi
Dew Point: 34°   Wind: 3mph
Humidity: 100%   Direction: 260°W
Pressure: 30.03"   Gusts: NA
Location:  37.1177°N, 83.0448°W
Report Text: KI35 271055Z AUTO 26003KT 7SM SCT003 SCT007 OVC012 01/01 A3003 RMK AO1
Loading
Personal Weather Stations






























Interactive Weather Map New forecast layout! Learn more

10-Day Weather Forecast

Advertisements
Track Severe Weather on mobile